sensor_id;sensor_type;location;lat;lon;timestamp;pressure;altitude;pressure_sealevel;temperature;humidity
71805;BME280;59654;52.216;5.616;2023-04-26T00:00:23;101730.53;;;0.97;93.53
71805;BME280;59654;52.216;5.616;2023-04-26T00:00:54;101727.03;;;0.96;92.73
71805;BME280;59654;52.216;5.616;2023-04-26T00:01:27;101728.75;;;0.96;92.20
71805;BME280;59654;52.216;5.616;2023-04-26T00:01:59;101733.13;;;0.95;92.29
71805;BME280;59654;52.216;5.616;2023-04-26T00:02:30;101729.63;;;0.95;92.17
71805;BME280;59654;52.216;5.616;2023-04-26T00:03:02;101726.97;;;0.93;92.48
71805;BME280;59654;52.216;5.616;2023-04-26T00:03:33;101725.22;;;0.94;92.76
71805;BME280;59654;52.216;5.616;2023-04-26T00:04:04;101721.72;;;0.93;92.27
71805;BME280;59654;52.216;5.616;2023-04-26T00:04:35;101727.81;;;0.92;92.60
71805;BME280;59654;52.216;5.616;2023-04-26T00:05:06;101725.19;;;0.92;92.50
71805;BME280;59654;52.216;5.616;2023-04-26T00:05:38;101723.44;;;0.91;92.35
71805;BME280;59654;52.216;5.616;2023-04-26T00:06:09;101721.72;;;0.93;92.97
71805;BME280;59654;52.216;5.616;2023-04-26T00:06:43;101725.19;;;0.92;92.85
71805;BME280;59654;52.216;5.616;2023-04-26T00:07:15;101724.31;;;0.92;92.62
71805;BME280;59654;52.216;5.616;2023-04-26T00:07:46;101724.31;;;0.92;92.76
71805;BME280;59654;52.216;5.616;2023-04-26T00:08:25;101721.66;;;0.90;92.60
71805;BME280;59654;52.216;5.616;2023-04-26T00:08:56;101724.28;;;0.90;92.25
71805;BME280;59654;52.216;5.616;2023-04-26T00:09:27;101716.41;;;0.89;92.56
71805;BME280;59654;52.216;5.616;2023-04-26T00:09:58;101723.41;;;0.88;93.15
71805;BME280;59654;52.216;5.616;2023-04-26T00:10:29;101730.44;;;0.89;93.02
71805;BME280;59654;52.216;5.616;2023-04-26T00:11:00;101726.91;;;0.90;93.01
71805;BME280;59654;52.216;5.616;2023-04-26T00:11:31;101726.91;;;0.90;93.60
71805;BME280;59654;52.216;5.616;2023-04-26T00:12:02;101730.44;;;0.89;93.45
71805;BME280;59654;52.216;5.616;2023-04-26T00:12:33;101733.06;;;0.89;93.12
71805;BME280;59654;52.216;5.616;2023-04-26T00:13:05;101722.56;;;0.89;92.88
71805;BME280;59654;52.216;5.616;2023-04-26T00:13:37;101733.91;;;0.88;92.91
71805;BME280;59654;52.216;5.616;2023-04-26T00:14:08;101729.53;;;0.87;92.81
71805;BME280;59654;52.216;5.616;2023-04-26T00:14:39;101730.38;;;0.86;92.82
71805;BME280;59654;52.216;5.616;2023-04-26T00:15:15;101732.97;;;0.84;93.11
71805;BME280;59654;52.216;5.616;2023-04-26T00:15:46;101732.09;;;0.84;92.75
71805;BME280;59654;52.216;5.616;2023-04-26T00:16:17;101731.19;;;0.83;92.83
71805;BME280;59654;52.216;5.616;2023-04-26T00:16:49;101731.22;;;0.85;92.81
71805;BME280;59654;52.216;5.616;2023-04-26T00:17:20;101732.09;;;0.84;92.95
71805;BME280;59654;52.216;5.616;2023-04-26T00:17:53;101725.09;;;0.84;92.88
71805;BME280;59654;52.216;5.616;2023-04-26T00:18:24;101725.09;;;0.84;93.27
71805;BME280;59654;52.216;5.616;2023-04-26T00:18:54;101732.97;;;0.84;93.28
71805;BME280;59654;52.216;5.616;2023-04-26T00:19:26;101725.09;;;0.84;92.49
71805;BME280;59654;52.216;5.616;2023-04-26T00:19:57;101727.72;;;0.84;93.13
71805;BME280;59654;52.216;5.616;2023-04-26T00:20:28;101725.97;;;0.85;93.21
71805;BME280;59654;52.216;5.616;2023-04-26T00:20:59;101720.72;;;0.85;93.44
71805;BME280;59654;52.216;5.616;2023-04-26T00:21:30;101726.84;;;0.84;93.01
71805;BME280;59654;52.216;5.616;2023-04-26T00:22:01;101730.31;;;0.83;93.60
71805;BME280;59654;52.216;5.616;2023-04-26T00:22:32;101726.81;;;0.82;93.27
71805;BME280;59654;52.216;5.616;2023-04-26T00:23:03;101729.44;;;0.82;94.02
71805;BME280;59654;52.216;5.616;2023-04-26T00:23:34;101725.97;;;0.83;93.20
71805;BME280;59654;52.216;5.616;2023-04-26T00:24:06;101723.34;;;0.83;94.01
71805;BME280;59654;52.216;5.616;2023-04-26T00:24:37;101726.81;;;0.82;93.67
71805;BME280;59654;52.216;5.616;2023-04-26T00:25:08;101733.78;;;0.80;93.21
71805;BME280;59654;52.216;5.616;2023-04-26T00:25:40;101733.81;;;0.82;93.42
71805;BME280;59654;52.216;5.616;2023-04-26T00:26:11;101720.69;;;0.82;93.02
71805;BME280;59654;52.216;5.616;2023-04-26T00:26:42;101730.28;;;0.81;93.08
71805;BME280;59654;52.216;5.616;2023-04-26T00:27:14;101726.78;;;0.81;93.12
71805;BME280;59654;52.216;5.616;2023-04-26T00:27:45;101725.94;;;0.82;93.14
71805;BME280;59654;52.216;5.616;2023-04-26T00:28:16;101725.91;;;0.80;93.29
71805;BME280;59654;52.216;5.616;2023-04-26T00:28:46;101723.25;;;0.79;93.30
71805;BME280;59654;52.216;5.616;2023-04-26T00:29:17;101726.75;;;0.79;93.18
71805;BME280;59654;52.216;5.616;2023-04-26T00:29:48;101720.59;;;0.77;93.64
71805;BME280;59654;52.216;5.616;2023-04-26T00:30:19;101717.94;;;0.76;93.48
71805;BME280;59654;52.216;5.616;2023-04-26T00:30:50;101722.34;;;0.77;93.59
71805;BME280;59654;52.216;5.616;2023-04-26T00:31:21;101722.31;;;0.75;93.44
71805;BME280;59654;52.216;5.616;2023-04-26T00:31:52;101724.91;;;0.74;93.39
71805;BME280;59654;52.216;5.616;2023-04-26T00:32:22;101723.19;;;0.73;93.31
71805;BME280;59654;52.216;5.616;2023-04-26T00:32:54;101723.19;;;0.73;93.61
71805;BME280;59654;52.216;5.616;2023-04-26T00:33:25;101717.00;;;0.71;93.61
71805;BME280;59654;52.216;5.616;2023-04-26T00:33:56;101715.28;;;0.71;93.74
71805;BME280;59654;52.216;5.616;2023-04-26T00:34:34;101717.91;;;0.71;93.65
71805;BME280;59654;52.216;5.616;2023-04-26T00:35:06;101722.28;;;0.72;93.78
71805;BME280;59654;52.216;5.616;2023-04-26T00:35:37;101717.03;;;0.72;93.45
71805;BME280;59654;52.216;5.616;2023-04-26T00:36:08;101720.53;;;0.71;93.27
71805;BME280;59654;52.216;5.616;2023-04-26T00:36:39;101720.56;;;0.73;93.72
71805;BME280;59654;52.216;5.616;2023-04-26T00:37:11;101714.38;;;0.71;93.19
71805;BME280;59654;52.216;5.616;2023-04-26T00:37:42;101717.00;;;0.71;93.04
71805;BME280;59654;52.216;5.616;2023-04-26T00:38:13;101723.16;;;0.71;93.19
71805;BME280;59654;52.216;5.616;2023-04-26T00:38:44;101710.88;;;0.70;93.34
71805;BME280;59654;52.216;5.616;2023-04-26T00:39:16;101716.13;;;0.70;93.56
71805;BME280;59654;52.216;5.616;2023-04-26T00:39:47;101715.25;;;0.70;93.14
71805;BME280;59654;52.216;5.616;2023-04-26T00:40:17;101722.22;;;0.69;92.98
71805;BME280;59654;52.216;5.616;2023-04-26T00:40:51;101720.50;;;0.70;93.36
71805;BME280;59654;52.216;5.616;2023-04-26T00:41:22;101716.97;;;0.69;93.40
71805;BME280;59654;52.216;5.616;2023-04-26T00:41:53;101713.47;;;0.69;93.07
71805;BME280;59654;52.216;5.616;2023-04-26T00:42:26;101718.69;;;0.67;93.15
71805;BME280;59654;52.216;5.616;2023-04-26T00:42:58;101716.09;;;0.69;92.53
71805;BME280;59654;52.216;5.616;2023-04-26T00:43:28;101718.66;;;0.66;92.57
71805;BME280;59654;52.216;5.616;2023-04-26T00:43:59;101724.78;;;0.65;92.97
71805;BME280;59654;52.216;5.616;2023-04-26T00:44:30;101713.41;;;0.64;92.67
71805;BME280;59654;52.216;5.616;2023-04-26T00:45:01;101722.13;;;0.63;92.28
71805;BME280;59654;52.216;5.616;2023-04-26T00:45:33;101722.97;;;0.62;92.62
71805;BME280;59654;52.216;5.616;2023-04-26T00:46:06;101719.47;;;0.62;92.97
71805;BME280;59654;52.216;5.616;2023-04-26T00:46:39;101723.84;;;0.63;92.58
71805;BME280;59654;52.216;5.616;2023-04-26T00:47:10;101710.75;;;0.63;93.07
71805;BME280;59654;52.216;5.616;2023-04-26T00:47:42;101714.22;;;0.62;92.84
71805;BME280;59654;52.216;5.616;2023-04-26T00:48:14;101715.06;;;0.61;92.23
71805;BME280;59654;52.216;5.616;2023-04-26T00:48:46;101716.81;;;0.60;92.25
71805;BME280;59654;52.216;5.616;2023-04-26T00:49:20;101713.31;;;0.60;92.98
71805;BME280;59654;52.216;5.616;2023-04-26T00:49:52;101722.06;;;0.60;92.66
71805;BME280;59654;52.216;5.616;2023-04-26T00:50:23;101715.03;;;0.59;92.50
71805;BME280;59654;52.216;5.616;2023-04-26T00:50:55;101713.31;;;0.60;92.65
71805;BME280;59654;52.216;5.616;2023-04-26T00:51:26;101708.91;;;0.59;92.90
71805;BME280;59654;52.216;5.616;2023-04-26T00:51:57;101712.41;;;0.59;92.58
71805;BME280;59654;52.216;5.616;2023-04-26T00:52:29;101704.53;;;0.56;92.10
71805;BME280;59654;52.216;5.616;2023-04-26T00:53:01;101711.50;;;0.56;92.10
71805;BME280;59654;52.216;5.616;2023-04-26T00:53:33;101711.50;;;0.54;92.87
71805;BME280;59654;52.216;5.616;2023-04-26T00:54:05;101707.91;;;0.50;92.52
71805;BME280;59654;52.216;5.616;2023-04-26T00:54:37;101711.44;;;0.51;92.82
71805;BME280;59654;52.216;5.616;2023-04-26T00:55:08;101706.16;;;0.49;92.57
71805;BME280;59654;52.216;5.616;2023-04-26T00:55:40;101706.13;;;0.48;93.02
71805;BME280;59654;52.216;5.616;2023-04-26T00:56:13;101703.50;;;0.48;92.92
71805;BME280;59654;52.216;5.616;2023-04-26T00:56:46;101709.63;;;0.48;92.90
71805;BME280;59654;52.216;5.616;2023-04-26T00:57:17;101700.00;;;0.47;93.14
71805;BME280;59654;52.216;5.616;2023-04-26T00:57:48;101710.50;;;0.47;92.94
71805;BME280;59654;52.216;5.616;2023-04-26T00:58:19;101706.09;;;0.46;92.92
71805;BME280;59654;52.216;5.616;2023-04-26T00:58:50;101706.94;;;0.45;92.48
71805;BME280;59654;52.216;5.616;2023-04-26T00:59:21;101700.78;;;0.43;93.03
71805;BME280;59654;52.216;5.616;2023-04-26T00:59:53;101708.63;;;0.42;92.66
71805;BME280;59654;52.216;5.616;2023-04-26T01:00:24;101706.91;;;0.42;93.12
71805;BME280;59654;52.216;5.616;2023-04-26T01:00:55;101701.66;;;0.42;93.38
71805;BME280;59654;52.216;5.616;2023-04-26T01:01:26;101694.63;;;0.41;93.44
71805;BME280;59654;52.216;5.616;2023-04-26T01:01:58;101713.03;;;0.43;93.14
71805;BME280;59654;52.216;5.616;2023-04-26T01:02:29;101710.38;;;0.41;92.60
71805;BME280;59654;52.216;5.616;2023-04-26T01:03:00;101703.38;;;0.40;92.82
71805;BME280;59654;52.216;5.616;2023-04-26T01:03:31;101704.28;;;0.41;92.95
71805;BME280;59654;52.216;5.616;2023-04-26T01:04:04;101706.88;;;0.39;92.34
71805;BME280;59654;52.216;5.616;2023-04-26T01:04:35;101708.56;;;0.37;92.42
71805;BME280;59654;52.216;5.616;2023-04-26T01:05:07;101704.16;;;0.35;92.37
71805;BME280;59654;52.216;5.616;2023-04-26T01:05:38;101707.66;;;0.35;91.96
71805;BME280;59654;52.216;5.616;2023-04-26T01:06:10;101702.38;;;0.34;92.28
71805;BME280;59654;52.216;5.616;2023-04-26T01:06:41;101706.75;;;0.33;92.05
71805;BME280;59654;52.216;5.616;2023-04-26T01:07:12;101705.88;;;0.33;91.80
71805;BME280;59654;52.216;5.616;2023-04-26T01:07:44;101703.22;;;0.31;91.77
71805;BME280;59654;52.216;5.616;2023-04-26T01:08:15;101704.06;;;0.30;92.05
71805;BME280;59654;52.216;5.616;2023-04-26T01:08:50;101707.56;;;0.31;92.14
71805;BME280;59654;52.216;5.616;2023-04-26T01:09:23;101706.69;;;0.30;92.37
71805;BME280;59654;52.216;5.616;2023-04-26T01:09:54;101705.81;;;0.30;92.19
71805;BME280;59654;52.216;5.616;2023-04-26T01:10:27;101706.69;;;0.30;91.65
71805;BME280;59654;52.216;5.616;2023-04-26T01:10:58;101708.44;;;0.30;91.57
71805;BME280;59654;52.216;5.616;2023-04-26T01:11:31;101704.03;;;0.29;92.22
71805;BME280;59654;52.216;5.616;2023-04-26T01:12:03;101696.16;;;0.29;91.83
71805;BME280;59654;52.216;5.616;2023-04-26T01:12:37;101708.41;;;0.28;92.12
71805;BME280;59654;52.216;5.616;2023-04-26T01:13:10;101708.41;;;0.28;92.48
71805;BME280;59654;52.216;5.616;2023-04-26T01:13:41;101709.25;;;0.27;92.83
71805;BME280;59654;52.216;5.616;2023-04-26T01:14:13;101710.13;;;0.28;92.86
71805;BME280;59654;52.216;5.616;2023-04-26T01:14:46;101708.41;;;0.28;93.03
71805;BME280;59654;52.216;5.616;2023-04-26T01:15:19;101711.88;;;0.27;92.49
71805;BME280;59654;52.216;5.616;2023-04-26T01:15:50;101699.63;;;0.26;92.65
71805;BME280;59654;52.216;5.616;2023-04-26T01:16:22;101711.00;;;0.27;92.76
71805;BME280;59654;52.216;5.616;2023-04-26T01:16:54;101711.00;;;0.27;93.10
71805;BME280;59654;52.216;5.616;2023-04-26T01:17:26;101711.84;;;0.26;92.51
71805;BME280;59654;52.216;5.616;2023-04-26T01:18:00;101713.59;;;0.25;92.92
71805;BME280;59654;52.216;5.616;2023-04-26T01:18:32;101715.34;;;0.26;92.81
71805;BME280;59654;52.216;5.616;2023-04-26T01:19:11;101718.84;;;0.27;92.54
71805;BME280;59654;52.216;5.616;2023-04-26T01:19:48;101717.09;;;0.26;92.66
71805;BME280;59654;52.216;5.616;2023-04-26T01:20:19;101720.59;;;0.25;92.92
71805;BME280;59654;52.216;5.616;2023-04-26T01:20:50;101724.97;;;0.26;92.86
71805;BME280;59654;52.216;5.616;2023-04-26T01:21:23;101722.34;;;0.24;92.86
71805;BME280;59654;52.216;5.616;2023-04-26T01:21:55;101717.97;;;0.25;92.89
71805;BME280;59654;52.216;5.616;2023-04-26T01:22:26;101718.84;;;0.24;92.56
71805;BME280;59654;52.216;5.616;2023-04-26T01:22:58;101722.31;;;0.23;93.11
71805;BME280;59654;52.216;5.616;2023-04-26T01:23:28;101721.44;;;0.24;93.00
71805;BME280;59654;52.216;5.616;2023-04-26T01:23:59;101717.94;;;0.23;92.63
71805;BME280;59654;52.216;5.616;2023-04-26T01:24:34;101720.56;;;0.23;92.79
71805;BME280;59654;52.216;5.616;2023-04-26T01:25:10;101724.03;;;0.22;93.13
71805;BME280;59654;52.216;5.616;2023-04-26T01:25:41;101722.31;;;0.23;93.26
71805;BME280;59654;52.216;5.616;2023-04-26T01:26:12;101724.97;;;0.24;92.94
71805;BME280;59654;52.216;5.616;2023-04-26T01:26:43;101721.44;;;0.24;92.73
71805;BME280;59654;52.216;5.616;2023-04-26T01:27:18;101721.41;;;0.22;92.77
71805;BME280;59654;52.216;5.616;2023-04-26T01:27:51;101722.31;;;0.23;93.22
71805;BME280;59654;52.216;5.616;2023-04-26T01:28:22;101725.78;;;0.22;93.05
71805;BME280;59654;52.216;5.616;2023-04-26T01:28:52;101721.38;;;0.21;93.22
71805;BME280;59654;52.216;5.616;2023-04-26T01:29:23;101725.75;;;0.20;93.24
71805;BME280;59654;52.216;5.616;2023-04-26T01:29:54;101724.03;;;0.22;92.61
71805;BME280;59654;52.216;5.616;2023-04-26T01:30:27;101722.31;;;0.23;92.83
71805;BME280;59654;52.216;5.616;2023-04-26T01:30:58;101726.69;;;0.24;93.06
71805;BME280;59654;52.216;5.616;2023-04-26T01:31:29;101721.44;;;0.24;93.57
71805;BME280;59654;52.216;5.616;2023-04-26T01:31:59;101723.22;;;0.25;92.56
71805;BME280;59654;52.216;5.616;2023-04-26T01:32:32;101726.69;;;0.24;92.67
71805;BME280;59654;52.216;5.616;2023-04-26T01:33:04;101729.31;;;0.24;91.85
71805;BME280;59654;52.216;5.616;2023-04-26T01:33:35;101724.94;;;0.23;92.08
71805;BME280;59654;52.216;5.616;2023-04-26T01:34:06;101724.03;;;0.22;91.72
71805;BME280;59654;52.216;5.616;2023-04-26T01:34:36;101725.78;;;0.22;91.91
71805;BME280;59654;52.216;5.616;2023-04-26T01:35:07;101725.75;;;0.20;91.74
71805;BME280;59654;52.216;5.616;2023-04-26T01:35:38;101723.97;;;0.19;91.52
71805;BME280;59654;52.216;5.616;2023-04-26T01:36:09;101726.56;;;0.17;91.23
71805;BME280;59654;52.216;5.616;2023-04-26T01:36:40;101718.69;;;0.16;91.59
71805;BME280;59654;52.216;5.616;2023-04-26T01:37:12;101719.50;;;0.13;91.34
71805;BME280;59654;52.216;5.616;2023-04-26T01:37:43;101726.47;;;0.13;91.54
71805;BME280;59654;52.216;5.616;2023-04-26T01:38:14;101722.09;;;0.12;91.76
71805;BME280;59654;52.216;5.616;2023-04-26T01:38:47;101728.19;;;0.11;91.87
71805;BME280;59654;52.216;5.616;2023-04-26T01:39:18;101730.78;;;0.09;91.86
71805;BME280;59654;52.216;5.616;2023-04-26T01:39:49;101725.53;;;0.09;91.64
71805;BME280;59654;52.216;5.616;2023-04-26T01:40:19;101726.38;;;0.07;91.70
71805;BME280;59654;52.216;5.616;2023-04-26T01:40:51;101731.63;;;0.07;91.97
71805;BME280;59654;52.216;5.616;2023-04-26T01:41:22;101724.63;;;0.06;92.34
71805;BME280;59654;52.216;5.616;2023-04-26T01:41:56;101725.47;;;0.05;92.30
71805;BME280;59654;52.216;5.616;2023-04-26T01:42:28;101735.06;;;0.04;92.42
71805;BME280;59654;52.216;5.616;2023-04-26T01:42:59;101723.66;;;0.02;92.80
71805;BME280;59654;52.216;5.616;2023-04-26T01:43:32;101730.66;;;0.02;92.72
71805;BME280;59654;52.216;5.616;2023-04-26T01:44:03;101727.16;;;0.03;92.89
71805;BME280;59654;52.216;5.616;2023-04-26T01:44:34;101728.06;;;0.03;92.22
71805;BME280;59654;52.216;5.616;2023-04-26T01:45:06;101727.16;;;0.03;92.43
71805;BME280;59654;52.216;5.616;2023-04-26T01:45:57;101730.66;;;0.02;92.72
71805;BME280;59654;52.216;5.616;2023-04-26T01:46:33;101728.88;;;0.01;92.41
71805;BME280;59654;52.216;5.616;2023-04-26T01:47:04;101725.34;;;-0.01;92.94
71805;BME280;59654;52.216;5.616;2023-04-26T01:47:36;101727.09;;;-0.00;92.69
71805;BME280;59654;52.216;5.616;2023-04-26T01:48:06;101725.34;;;-0.01;92.69
71805;BME280;59654;52.216;5.616;2023-04-26T01:48:38;101730.56;;;-0.03;92.80
71805;BME280;59654;52.216;5.616;2023-04-26T01:49:09;101727.03;;;-0.03;92.40
71805;BME280;59654;52.216;5.616;2023-04-26T01:49:39;101727.03;;;-0.03;92.98
71805;BME280;59654;52.216;5.616;2023-04-26T01:50:11;101737.53;;;-0.03;93.17
71805;BME280;59654;52.216;5.616;2023-04-26T01:50:43;101727.03;;;-0.03;92.80
71805;BME280;59654;52.216;5.616;2023-04-26T01:51:17;101727.03;;;-0.03;92.87
71805;BME280;59654;52.216;5.616;2023-04-26T01:51:47;101726.16;;;-0.04;92.74
71805;BME280;59654;52.216;5.616;2023-04-26T01:52:20;101720.03;;;-0.04;92.30
71805;BME280;59654;52.216;5.616;2023-04-26T01:52:52;101721.78;;;-0.05;92.79
71805;BME280;59654;52.216;5.616;2023-04-26T01:53:23;101724.34;;;-0.06;92.52
71805;BME280;59654;52.216;5.616;2023-04-26T01:53:54;101724.38;;;-0.05;92.64
71805;BME280;59654;52.216;5.616;2023-04-26T01:54:24;101727.91;;;-0.04;92.38
71805;BME280;59654;52.216;5.616;2023-04-26T01:54:57;101723.50;;;-0.05;92.25
71805;BME280;59654;52.216;5.616;2023-04-26T01:55:27;101716.47;;;-0.09;92.74
71805;BME280;59654;52.216;5.616;2023-04-26T01:56:02;101721.72;;;-0.09;92.49
71805;BME280;59654;52.216;5.616;2023-04-26T01:56:34;101719.09;;;-0.09;92.40
71805;BME280;59654;52.216;5.616;2023-04-26T01:57:05;101726.94;;;-0.09;92.79
71805;BME280;59654;52.216;5.616;2023-04-26T01:57:36;101719.06;;;-0.11;92.70
71805;BME280;59654;52.216;5.616;2023-04-26T01:58:06;101722.56;;;-0.10;93.28
71805;BME280;59654;52.216;5.616;2023-04-26T01:58:37;101717.28;;;-0.12;93.05
71805;BME280;59654;52.216;5.616;2023-04-26T01:59:08;101718.97;;;-0.14;92.95
71805;BME280;59654;52.216;5.616;2023-04-26T01:59:39;101718.97;;;-0.14;93.19
71805;BME280;59654;52.216;5.616;2023-04-26T02:00:10;101717.25;;;-0.13;92.84
71805;BME280;59654;52.216;5.616;2023-04-26T02:00:45;101722.50;;;-0.13;93.06
71805;BME280;59654;52.216;5.616;2023-04-26T02:01:16;101720.75;;;-0.13;92.80
71805;BME280;59654;52.216;5.616;2023-04-26T02:01:48;101721.56;;;-0.15;92.98
71805;BME280;59654;52.216;5.616;2023-04-26T02:02:19;101719.81;;;-0.16;93.33
71805;BME280;59654;52.216;5.616;2023-04-26T02:02:54;101723.31;;;-0.16;93.46
71805;BME280;59654;52.216;5.616;2023-04-26T02:03:26;101721.56;;;-0.15;93.25
71805;BME280;59654;52.216;5.616;2023-04-26T02:03:57;101718.94;;;-0.15;93.58
71805;BME280;59654;52.216;5.616;2023-04-26T02:04:28;101719.81;;;-0.16;93.22
71805;BME280;59654;52.216;5.616;2023-04-26T02:04:59;101716.31;;;-0.17;93.16
71805;BME280;59654;52.216;5.616;2023-04-26T02:05:30;101724.19;;;-0.15;93.19
71805;BME280;59654;52.216;5.616;2023-04-26T02:06:02;101725.94;;;-0.16;93.28
71805;BME280;59654;52.216;5.616;2023-04-26T02:06:33;101714.59;;;-0.15;93.37
71805;BME280;59654;52.216;5.616;2023-04-26T02:07:04;101718.09;;;-0.14;93.39
71805;BME280;59654;52.216;5.616;2023-04-26T02:07:35;101723.34;;;-0.14;93.13
71805;BME280;59654;52.216;5.616;2023-04-26T02:08:06;101720.69;;;-0.16;92.96
71805;BME280;59654;52.216;5.616;2023-04-26T02:08:37;101718.06;;;-0.16;93.14
71805;BME280;59654;52.216;5.616;2023-04-26T02:09:08;101719.81;;;-0.16;92.66
71805;BME280;59654;52.216;5.616;2023-04-26T02:09:43;101716.28;;;-0.19;92.71
71805;BME280;59654;52.216;5.616;2023-04-26T02:10:16;101723.25;;;-0.19;92.39
71805;BME280;59654;52.216;5.616;2023-04-26T02:10:48;101724.09;;;-0.20;92.65
71805;BME280;59654;52.216;5.616;2023-04-26T02:11:19;101724.97;;;-0.20;92.64
71805;BME280;59654;52.216;5.616;2023-04-26T02:11:50;101723.22;;;-0.21;92.71
71805;BME280;59654;52.216;5.616;2023-04-26T02:12:21;101725.84;;;-0.21;93.18
71805;BME280;59654;52.216;5.616;2023-04-26T02:12:52;101717.94;;;-0.22;92.69
71805;BME280;59654;52.216;5.616;2023-04-26T02:13:23;101719.66;;;-0.23;92.62
71805;BME280;59654;52.216;5.616;2023-04-26T02:13:55;101723.13;;;-0.24;92.44
71805;BME280;59654;52.216;5.616;2023-04-26T02:14:26;101721.41;;;-0.25;92.95
71805;BME280;59654;52.216;5.616;2023-04-26T02:14:57;101720.53;;;-0.24;93.01
71805;BME280;59654;52.216;5.616;2023-04-26T02:15:27;101718.78;;;-0.23;93.43
71805;BME280;59654;52.216;5.616;2023-04-26T02:15:59;101717.06;;;-0.24;93.51
71805;BME280;59654;52.216;5.616;2023-04-26T02:16:30;101718.78;;;-0.23;93.12
71805;BME280;59654;52.216;5.616;2023-04-26T02:17:03;101717.06;;;-0.23;92.82
71805;BME280;59654;52.216;5.616;2023-04-26T02:17:34;101716.16;;;-0.23;93.23
71805;BME280;59654;52.216;5.616;2023-04-26T02:18:06;101714.44;;;-0.24;92.87
71805;BME280;59654;52.216;5.616;2023-04-26T02:18:39;101711.81;;;-0.24;92.88
71805;BME280;59654;52.216;5.616;2023-04-26T02:19:10;101716.16;;;-0.25;92.99
71805;BME280;59654;52.216;5.616;2023-04-26T02:19:44;101710.91;;;-0.26;92.58
71805;BME280;59654;52.216;5.616;2023-04-26T02:20:15;101717.03;;;-0.26;92.94
71805;BME280;59654;52.216;5.616;2023-04-26T02:20:46;101719.56;;;-0.29;92.59
71805;BME280;59654;52.216;5.616;2023-04-26T02:21:18;101716.88;;;-0.32;92.03
71805;BME280;59654;52.216;5.616;2023-04-26T02:21:55;101715.06;;;-0.34;92.09
71805;BME280;59654;52.216;5.616;2023-04-26T02:22:27;101709.84;;;-0.34;92.54
71805;BME280;59654;52.216;5.616;2023-04-26T02:22:58;101718.56;;;-0.35;92.60
71805;BME280;59654;52.216;5.616;2023-04-26T02:23:30;101717.69;;;-0.34;92.69
71805;BME280;59654;52.216;5.616;2023-04-26T02:24:00;101713.34;;;-0.34;93.29
71805;BME280;59654;52.216;5.616;2023-04-26T02:24:31;101719.47;;;-0.33;93.11
71805;BME280;59654;52.216;5.616;2023-04-26T02:25:02;101714.25;;;-0.32;93.55
71805;BME280;59654;52.216;5.616;2023-04-26T02:25:33;101716.00;;;-0.32;93.37
71805;BME280;59654;52.216;5.616;2023-04-26T02:26:04;101722.16;;;-0.30;93.73
71805;BME280;59654;52.216;5.616;2023-04-26T02:26:35;101714.25;;;-0.32;93.26
71805;BME280;59654;52.216;5.616;2023-04-26T02:27:06;101711.59;;;-0.33;93.38
71805;BME280;59654;52.216;5.616;2023-04-26T02:27:38;101714.25;;;-0.32;93.00
71805;BME280;59654;52.216;5.616;2023-04-26T02:28:09;101717.72;;;-0.33;92.89
71805;BME280;59654;52.216;5.616;2023-04-26T02:28:40;101721.19;;;-0.34;93.27
71805;BME280;59654;52.216;5.616;2023-04-26T02:29:14;101719.44;;;-0.35;93.90
71805;BME280;59654;52.216;5.616;2023-04-26T02:29:45;101719.44;;;-0.35;93.92
71805;BME280;59654;52.216;5.616;2023-04-26T02:30:16;101719.44;;;-0.35;93.40
71805;BME280;59654;52.216;5.616;2023-04-26T02:30:47;101722.03;;;-0.36;93.33
71805;BME280;59654;52.216;5.616;2023-04-26T02:31:19;101724.59;;;-0.38;93.63
71805;BME280;59654;52.216;5.616;2023-04-26T02:31:50;101724.59;;;-0.38;93.56
71805;BME280;59654;52.216;5.616;2023-04-26T02:32:20;101718.47;;;-0.38;93.52
71805;BME280;59654;52.216;5.616;2023-04-26T02:32:54;101710.63;;;-0.38;93.89
71805;BME280;59654;52.216;5.616;2023-04-26T02:33:25;101727.19;;;-0.39;94.14
71805;BME280;59654;52.216;5.616;2023-04-26T02:33:56;101719.34;;;-0.41;93.82
71805;BME280;59654;52.216;5.616;2023-04-26T02:34:28;101731.53;;;-0.40;93.60
71805;BME280;59654;52.216;5.616;2023-04-26T02:34:59;101719.34;;;-0.39;94.08
71805;BME280;59654;52.216;5.616;2023-04-26T02:35:30;101726.31;;;-0.40;93.92
71805;BME280;59654;52.216;5.616;2023-04-26T02:36:05;101726.31;;;-0.40;93.05
71805;BME280;59654;52.216;5.616;2023-04-26T02:36:36;101714.94;;;-0.42;93.30
71805;BME280;59654;52.216;5.616;2023-04-26T02:37:07;101729.78;;;-0.42;93.27
71805;BME280;59654;52.216;5.616;2023-04-26T02:37:38;101727.16;;;-0.42;93.34
71805;BME280;59654;52.216;5.616;2023-04-26T02:38:09;101721.91;;;-0.42;93.38
71805;BME280;59654;52.216;5.616;2023-04-26T02:38:40;101728.03;;;-0.42;93.19
71805;BME280;59654;52.216;5.616;2023-04-26T02:39:12;101728.03;;;-0.42;93.33
71805;BME280;59654;52.216;5.616;2023-04-26T02:39:42;101720.19;;;-0.42;93.08
71805;BME280;59654;52.216;5.616;2023-04-26T02:40:16;101730.63;;;-0.43;92.92
71805;BME280;59654;52.216;5.616;2023-04-26T02:40:47;101729.72;;;-0.45;93.11
71805;BME280;59654;52.216;5.616;2023-04-26T02:41:20;101738.44;;;-0.45;93.14
71805;BME280;59654;52.216;5.616;2023-04-26T02:41:53;101719.22;;;-0.45;93.08
71805;BME280;59654;52.216;5.616;2023-04-26T02:42:24;101717.47;;;-0.46;93.14
71805;BME280;59654;52.216;5.616;2023-04-26T02:42:55;101720.06;;;-0.46;93.04
71805;BME280;59654;52.216;5.616;2023-04-26T02:43:27;101716.59;;;-0.45;93.59
71805;BME280;59654;52.216;5.616;2023-04-26T02:43:58;101717.47;;;-0.46;93.04
71805;BME280;59654;52.216;5.616;2023-04-26T02:44:29;101717.50;;;-0.45;93.09
71805;BME280;59654;52.216;5.616;2023-04-26T02:45:00;101725.31;;;-0.46;93.37
71805;BME280;59654;52.216;5.616;2023-04-26T02:45:31;101719.22;;;-0.45;93.10
71805;BME280;59654;52.216;5.616;2023-04-26T02:46:06;101714.84;;;-0.46;93.30
71805;BME280;59654;52.216;5.616;2023-04-26T02:46:37;101714.00;;;-0.45;93.42
71805;BME280;59654;52.216;5.616;2023-04-26T02:47:08;101723.59;;;-0.46;93.12
71805;BME280;59654;52.216;5.616;2023-04-26T02:47:39;101716.59;;;-0.45;93.10